createdAt,value
2017-09-28T00:01:23.370Z,81.00
2017-09-28T00:03:50.783Z,80.05
2017-09-28T00:06:18.187Z,80.31
2017-09-28T00:08:45.592Z,81.19
2017-09-28T00:11:12.986Z,81.66
2017-09-28T00:13:40.395Z,82.84
2017-09-28T00:16:07.793Z,83.70
2017-09-28T00:18:35.216Z,83.55
2017-09-28T00:21:02.611Z,83.17
2017-09-28T00:23:30.118Z,83.10
2017-09-28T00:25:57.515Z,82.84
2017-09-28T00:28:24.969Z,82.18
2017-09-28T00:30:52.390Z,81.98
2017-09-28T00:33:19.794Z,82.14
2017-09-28T00:35:47.191Z,81.89
2017-09-28T00:38:14.598Z,81.17
2017-09-28T00:40:41.998Z,82.08
2017-09-28T00:43:09.398Z,81.16
2017-09-28T00:45:36.801Z,80.50
2017-09-28T00:48:04.207Z,80.15
2017-09-28T00:50:31.606Z,80.34
2017-09-28T00:52:59.019Z,82.08
2017-09-28T00:55:26.419Z,81.92
2017-09-28T00:57:53.911Z,81.34
2017-09-28T01:00:21.311Z,80.92
2017-09-28T01:02:48.719Z,82.05
2017-09-28T01:05:16.114Z,82.62
2017-09-28T01:07:43.518Z,81.82
2017-09-28T01:10:10.958Z,81.49
2017-09-28T01:12:38.365Z,82.08
2017-09-28T01:15:05.775Z,81.98
2017-09-28T01:17:33.175Z,81.05
2017-09-28T01:20:00.628Z,80.45
2017-09-28T01:22:28.026Z,81.43
2017-09-28T01:24:55.430Z,81.31
2017-09-28T01:27:22.836Z,82.13
2017-09-28T01:29:50.327Z,82.52
2017-09-28T01:32:17.782Z,82.70
2017-09-28T01:34:45.247Z,83.11
2017-09-28T01:37:12.655Z,84.72
2017-09-28T01:39:40.063Z,83.67
2017-09-28T01:42:07.463Z,84.16
2017-09-28T01:44:34.870Z,83.28
2017-09-28T01:47:02.266Z,82.16
2017-09-28T01:49:29.670Z,80.69
2017-09-28T01:51:57.075Z,79.73
2017-09-28T01:54:24.470Z,78.94
2017-09-28T01:56:51.867Z,78.91
2017-09-28T01:59:19.271Z,78.02
2017-09-28T02:01:46.759Z,77.39
2017-09-28T02:04:14.164Z,77.22
2017-09-28T02:06:41.558Z,78.16
2017-09-28T02:09:08.968Z,79.30
2017-09-28T02:11:36.367Z,79.09
2017-09-28T02:14:03.786Z,80.47
2017-09-28T02:16:31.184Z,80.07
2017-09-28T02:18:58.590Z,80.44
2017-09-28T02:21:25.990Z,81.13
2017-09-28T02:23:53.459Z,80.50
2017-09-28T02:26:20.926Z,79.90
2017-09-28T02:28:48.313Z,80.98
2017-09-28T02:31:15.723Z,83.16
2017-09-28T02:33:43.127Z,83.93
2017-09-28T02:36:10.535Z,83.83
2017-09-28T02:38:37.936Z,84.01
2017-09-28T02:41:05.334Z,84.77
2017-09-28T02:43:32.734Z,85.25
2017-09-28T02:46:00.139Z,85.40
2017-09-28T02:48:27.543Z,85.42
2017-09-28T02:50:54.950Z,85.33
2017-09-28T02:53:22.422Z,85.51
2017-09-28T02:55:49.827Z,85.49
2017-09-28T02:58:17.334Z,85.67
2017-09-28T03:00:44.759Z,86.08
2017-09-28T03:03:12.163Z,86.46
2017-09-28T03:05:39.578Z,86.69
2017-09-28T03:08:06.982Z,87.03
2017-09-28T03:10:34.398Z,87.12
2017-09-28T03:13:01.813Z,88.18
2017-09-28T03:15:29.226Z,88.27
2017-09-28T03:17:56.623Z,88.22
2017-09-28T03:20:24.031Z,88.29
2017-09-28T03:22:51.438Z,87.50
2017-09-28T03:25:18.850Z,87.35
2017-09-28T03:27:46.267Z,87.60
2017-09-28T03:30:13.759Z,87.68
2017-09-28T03:32:41.162Z,86.77
2017-09-28T03:35:08.570Z,86.37
2017-09-28T03:37:36.044Z,86.08
2017-09-28T03:40:03.450Z,86.09
2017-09-28T03:42:30.858Z,86.65
2017-09-28T03:44:58.263Z,86.50
2017-09-28T03:47:25.759Z,86.60
2017-09-28T03:49:53.156Z,86.17
2017-09-28T03:52:20.562Z,86.68
2017-09-28T03:54:48.006Z,86.49
2017-09-28T03:57:15.395Z,86.27
2017-09-28T03:59:42.807Z,85.40
2017-09-28T04:02:10.228Z,85.36
2017-09-28T04:04:37.627Z,85.62
2017-09-28T04:07:05.038Z,85.80
2017-09-28T04:09:32.444Z,86.39
2017-09-28T04:11:59.862Z,86.58
2017-09-28T04:14:27.263Z,87.02
2017-09-28T04:16:54.679Z,87.69
2017-09-28T04:19:22.079Z,88.49
2017-09-28T04:21:49.530Z,88.00
2017-09-28T04:24:16.942Z,87.63
2017-09-28T04:26:44.339Z,87.64
2017-09-28T04:29:11.767Z,87.73
2017-09-28T04:31:39.171Z,87.53
2017-09-28T04:34:06.575Z,88.35
2017-09-28T04:36:34.083Z,88.59
2017-09-28T04:39:01.479Z,89.10
2017-09-28T04:41:28.882Z,89.45
2017-09-28T04:43:56.438Z,89.33
2017-09-28T04:46:23.852Z,89.33
2017-09-28T04:48:51.262Z,89.09
2017-09-28T04:51:18.669Z,89.36
2017-09-28T04:53:46.071Z,89.70
2017-09-28T04:56:13.481Z,90.30
2017-09-28T04:58:40.973Z,90.29
2017-09-28T05:03:59.034Z,90.46
2017-09-28T05:06:26.440Z,89.85
2017-09-28T05:08:53.847Z,89.34
2017-09-28T05:11:21.267Z,88.75
2017-09-28T05:13:48.660Z,88.08
2017-09-28T05:16:16.054Z,86.86
2017-09-28T05:18:43.458Z,86.12
2017-09-28T05:21:10.861Z,85.84
2017-09-28T05:23:38.381Z,85.10
2017-09-28T05:26:05.783Z,84.59
2017-09-28T05:28:33.186Z,84.14
2017-09-28T05:31:00.591Z,83.82
2017-09-28T05:33:27.988Z,84.69
2017-09-28T05:35:55.399Z,85.17
2017-09-28T05:38:22.798Z,85.29
2017-09-28T05:40:50.215Z,85.70
2017-09-28T05:43:17.619Z,86.24
2017-09-28T05:45:45.022Z,86.61
2017-09-28T05:48:12.414Z,86.22
2017-09-28T05:50:39.826Z,86.26
2017-09-28T05:53:07.235Z,86.84
2017-09-28T05:55:34.639Z,88.37
2017-09-28T05:58:02.047Z,88.60
2017-09-28T06:00:29.455Z,89.60
2017-09-28T06:02:56.851Z,89.12
2017-09-28T06:05:24.258Z,89.38
2017-09-28T06:07:51.679Z,89.11
2017-09-28T06:10:19.096Z,89.17
2017-09-28T06:12:46.574Z,89.12
2017-09-28T06:15:13.991Z,89.24
2017-09-28T06:17:41.403Z,89.30
2017-09-28T06:20:08.874Z,89.46
2017-09-28T06:22:36.276Z,90.12
2017-09-28T06:25:03.695Z,90.92
2017-09-28T06:27:31.110Z,90.38
2017-09-28T06:29:58.495Z,90.47
2017-09-28T06:32:25.903Z,90.59
2017-09-28T06:34:53.397Z,90.63
2017-09-28T06:37:20.877Z,91.04
2017-09-28T06:39:48.259Z,91.06
2017-09-28T06:42:15.658Z,90.88
2017-09-28T06:44:43.059Z,90.61
2017-09-28T06:47:10.598Z,90.84
2017-09-28T06:49:38.006Z,90.85
2017-09-28T06:52:05.411Z,90.61
2017-09-28T06:54:32.810Z,91.25
2017-09-28T06:57:00.214Z,91.50
2017-09-28T06:59:27.615Z,91.13
2017-09-28T07:01:55.022Z,90.31
2017-09-28T07:04:22.418Z,90.39
2017-09-28T07:06:49.823Z,90.06
2017-09-28T07:09:17.319Z,90.35
2017-09-28T07:11:44.723Z,89.67
2017-09-28T07:14:12.114Z,89.90
2017-09-28T07:16:39.517Z,90.11
2017-09-28T07:19:07.010Z,89.72
2017-09-28T07:21:34.412Z,89.39
2017-09-28T07:24:01.826Z,89.21
2017-09-28T07:26:29.239Z,89.35
2017-09-28T07:28:56.779Z,89.50
2017-09-28T07:31:24.182Z,89.58
2017-09-28T07:33:51.587Z,89.21
2017-09-28T07:36:19.094Z,88.87
2017-09-28T07:38:46.502Z,88.98
2017-09-28T07:41:14.011Z,88.43
2017-09-28T07:43:41.412Z,87.80
2017-09-28T07:46:08.822Z,87.49
2017-09-28T07:48:36.395Z,87.86
2017-09-28T07:51:03.862Z,87.80
2017-09-28T07:53:31.262Z,87.89
2017-09-28T07:55:58.670Z,88.38
2017-09-28T07:58:26.078Z,88.82
2017-09-28T08:00:53.478Z,88.89
2017-09-28T08:03:21.035Z,88.53
2017-09-28T08:05:48.445Z,88.24
2017-09-28T08:08:15.851Z,87.72
2017-09-28T08:10:43.283Z,88.05
2017-09-28T08:13:10.686Z,88.11
2017-09-28T08:15:38.083Z,88.92
2017-09-28T08:18:05.494Z,88.60
2017-09-28T08:20:32.894Z,88.97
2017-09-28T08:23:00.317Z,88.95
2017-09-28T08:25:27.702Z,88.99
2017-09-28T08:27:55.108Z,88.89
2017-09-28T08:30:22.530Z,88.50
2017-09-28T08:32:49.943Z,89.44
2017-09-28T08:35:17.331Z,88.94
2017-09-28T08:37:44.791Z,89.17
2017-09-28T08:40:12.187Z,88.81
2017-09-28T08:42:39.598Z,88.53
2017-09-28T08:45:07.012Z,88.64
2017-09-28T08:47:34.418Z,88.31
2017-09-28T08:50:01.850Z,88.02
2017-09-28T08:52:29.263Z,88.48
2017-09-28T08:54:56.666Z,88.29
2017-09-28T08:57:24.074Z,88.27
2017-09-28T08:59:51.467Z,88.39
2017-09-28T09:02:18.870Z,88.48
2017-09-28T09:04:46.314Z,88.09
2017-09-28T09:07:13.714Z,87.84
2017-09-28T09:09:41.127Z,87.91
2017-09-28T09:12:08.530Z,88.37
2017-09-28T09:14:35.930Z,88.17
2017-09-28T09:17:03.331Z,87.76
2017-09-28T09:19:30.843Z,87.74
2017-09-28T09:21:58.307Z,87.75
2017-09-28T09:24:25.715Z,88.36
2017-09-28T09:26:53.120Z,88.15
2017-09-28T09:29:20.632Z,88.24
2017-09-28T09:31:48.022Z,87.85
2017-09-28T09:34:15.443Z,87.03
2017-09-28T09:36:42.841Z,87.38
2017-09-28T09:39:10.255Z,87.30
2017-09-28T09:41:37.643Z,87.56
2017-09-28T09:44:05.050Z,87.52
2017-09-28T09:46:32.455Z,87.85
2017-09-28T09:48:59.864Z,88.27
2017-09-28T09:51:27.271Z,87.22
2017-09-28T09:53:54.675Z,87.22
2017-09-28T09:56:22.083Z,87.00
2017-09-28T09:58:49.499Z,87.51
2017-09-28T10:01:16.898Z,87.96
2017-09-28T10:03:44.298Z,87.64
2017-09-28T10:06:11.723Z,87.63
2017-09-28T10:08:43.665Z,87.25
2017-09-28T10:11:11.982Z,87.33
2017-09-28T10:13:43.470Z,87.02
2017-09-28T10:16:13.350Z,86.47
2017-09-28T10:18:40.762Z,86.20
2017-09-28T10:21:08.174Z,86.43
2017-09-28T10:23:35.578Z,86.28
2017-09-28T10:26:02.986Z,86.20
2017-09-28T10:28:30.386Z,86.43
2017-09-28T10:30:57.798Z,87.22
2017-09-28T10:33:25.205Z,87.42
2017-09-28T10:35:52.609Z,87.36
2017-09-28T10:38:20.002Z,87.73
2017-09-28T10:40:47.402Z,87.87
2017-09-28T10:43:14.807Z,87.17
2017-09-28T10:45:42.209Z,86.63
2017-09-28T10:48:09.609Z,86.50
2017-09-28T10:50:37.007Z,86.91
2017-09-28T10:53:04.410Z,86.26
2017-09-28T10:55:31.820Z,85.49
2017-09-28T10:57:59.220Z,86.27
2017-09-28T11:00:26.626Z,85.73
2017-09-28T11:02:54.024Z,85.01
2017-09-28T11:05:21.438Z,84.51
2017-09-28T11:07:48.830Z,83.69
2017-09-28T11:10:16.371Z,84.11
2017-09-28T11:12:43.783Z,83.70
2017-09-28T11:15:11.192Z,84.42
2017-09-28T11:17:38.590Z,85.00
2017-09-28T11:20:06.163Z,84.82
2017-09-28T11:22:33.562Z,84.22
2017-09-28T11:25:00.978Z,84.22
2017-09-28T11:27:28.437Z,83.93
2017-09-28T11:29:55.839Z,83.86
2017-09-28T11:32:23.246Z,84.11
2017-09-28T11:34:50.651Z,83.70
2017-09-28T11:37:18.072Z,82.99
2017-09-28T11:39:45.462Z,82.96
2017-09-28T11:42:12.884Z,83.40
2017-09-28T11:44:40.330Z,83.92
2017-09-28T11:47:07.746Z,82.61
2017-09-28T11:49:35.134Z,82.74
2017-09-28T11:52:02.544Z,82.37
2017-09-28T11:54:29.939Z,82.56
2017-09-28T11:56:57.335Z,82.78
2017-09-28T11:59:24.743Z,82.54
2017-09-28T12:01:52.198Z,81.79
2017-09-28T12:04:19.615Z,81.21
2017-09-28T12:06:47.026Z,80.91
2017-09-28T12:09:14.440Z,80.20
2017-09-28T12:11:41.853Z,79.76
2017-09-28T12:14:09.247Z,79.12
2017-09-28T12:16:36.667Z,79.24
2017-09-28T12:19:04.051Z,79.32
2017-09-28T12:21:31.495Z,80.38
2017-09-28T12:23:58.890Z,80.94
2017-09-28T12:26:26.290Z,80.08
2017-09-28T12:28:53.701Z,78.81
2017-09-28T12:31:21.093Z,78.34
2017-09-28T12:33:48.491Z,77.95
2017-09-28T12:36:15.886Z,78.66
2017-09-28T12:38:43.295Z,78.81
2017-09-28T12:41:10.704Z,78.63
2017-09-28T12:43:38.110Z,79.25
2017-09-28T12:46:05.510Z,79.91
2017-09-28T12:50:59.602Z,79.50
2017-09-28T12:53:27.006Z,79.13
2017-09-28T12:55:54.398Z,79.97
2017-09-28T12:58:21.905Z,78.85
2017-09-28T13:00:49.463Z,79.19
2017-09-28T13:03:16.875Z,80.13
2017-09-28T13:05:44.274Z,80.06
2017-09-28T13:08:11.670Z,80.17
2017-09-28T13:10:39.075Z,80.11
2017-09-28T13:13:06.471Z,80.04
2017-09-28T13:15:33.866Z,80.84
2017-09-28T13:18:01.262Z,80.46
2017-09-28T13:20:28.682Z,80.18
2017-09-28T13:22:56.067Z,79.18
2017-09-28T13:25:23.499Z,79.61
2017-09-28T13:27:50.895Z,79.75
2017-09-28T13:30:18.302Z,79.60
2017-09-28T13:32:45.690Z,79.32
2017-09-28T13:35:13.100Z,79.44
2017-09-28T13:37:40.495Z,80.89
2017-09-28T13:40:07.934Z,79.95
2017-09-28T13:42:35.331Z,81.24
2017-09-28T13:45:02.736Z,79.44
2017-09-28T13:47:30.178Z,78.79
2017-09-28T13:49:57.576Z,78.95
2017-09-28T13:52:24.981Z,77.79
2017-09-28T13:54:52.394Z,78.19
2017-09-28T13:57:19.803Z,78.55
2017-09-28T13:59:47.199Z,77.07
2017-09-28T14:02:14.606Z,77.77
2017-09-28T14:04:41.994Z,77.59
2017-09-28T14:07:09.404Z,77.08
2017-09-28T14:09:36.811Z,77.57
2017-09-28T14:12:04.252Z,76.68
2017-09-28T14:14:31.639Z,76.90
2017-09-28T14:16:59.046Z,77.96
2017-09-28T14:19:26.463Z,77.42
2017-09-28T14:21:53.858Z,77.28
2017-09-28T14:24:21.256Z,77.85
2017-09-28T14:26:48.655Z,77.97
2017-09-28T14:29:16.050Z,76.76
2017-09-28T14:31:43.832Z,77.12
2017-09-28T14:34:11.226Z,77.67
2017-09-28T14:36:38.631Z,78.04
2017-09-28T14:39:06.083Z,77.70
2017-09-28T14:41:33.498Z,78.30
2017-09-28T14:44:00.899Z,77.94
2017-09-28T14:46:28.298Z,77.75
2017-09-28T14:48:55.695Z,77.92
2017-09-28T14:51:23.123Z,77.84
2017-09-28T14:53:50.518Z,77.33
2017-09-28T14:56:17.911Z,78.40
2017-09-28T14:58:45.315Z,78.47
2017-09-28T15:01:12.714Z,78.90
2017-09-28T15:03:40.116Z,78.52
2017-09-28T15:06:07.522Z,79.08
2017-09-28T15:08:34.934Z,78.48
2017-09-28T15:11:02.359Z,78.60
2017-09-28T15:13:29.763Z,77.87
2017-09-28T15:15:57.164Z,78.27
2017-09-28T15:18:24.594Z,78.43
2017-09-28T15:20:51.988Z,79.02
2017-09-28T15:25:46.119Z,79.54
2017-09-28T15:28:13.521Z,79.29
2017-09-28T15:30:40.920Z,78.93
2017-09-28T15:33:08.331Z,79.66
2017-09-28T15:35:35.726Z,79.50
2017-09-28T15:38:03.126Z,79.50
2017-09-28T15:40:30.583Z,78.97
2017-09-28T15:42:57.988Z,79.70
2017-09-28T15:45:25.483Z,80.51
2017-09-28T15:47:52.918Z,80.12
2017-09-28T15:50:20.324Z,80.58
2017-09-28T15:52:47.767Z,80.47
2017-09-28T15:55:15.129Z,80.60
2017-09-28T15:57:43.416Z,80.76
2017-09-28T16:00:10.838Z,80.15
2017-09-28T16:02:38.241Z,80.63
2017-09-28T16:05:05.644Z,80.38
2017-09-28T16:07:33.042Z,80.38
2017-09-28T16:10:00.446Z,80.98
2017-09-28T16:12:27.851Z,80.53
2017-09-28T16:14:55.259Z,80.30
2017-09-28T16:17:22.650Z,81.32
2017-09-28T16:19:50.057Z,82.21
2017-09-28T16:22:17.461Z,82.45
2017-09-28T16:24:44.868Z,82.12
2017-09-28T16:27:12.263Z,81.56
2017-09-28T16:29:39.710Z,81.18
2017-09-28T16:32:07.179Z,81.90
2017-09-28T16:34:34.585Z,81.75
2017-09-28T16:37:02.009Z,81.44
2017-09-28T16:39:29.420Z,81.63
2017-09-28T16:41:56.814Z,81.95
2017-09-28T16:44:24.230Z,83.10
2017-09-28T16:46:51.646Z,83.61
2017-09-28T16:49:19.074Z,83.16
2017-09-28T16:51:46.483Z,83.13
2017-09-28T16:54:13.876Z,83.79
2017-09-28T16:56:41.291Z,83.42
2017-09-28T16:59:08.687Z,82.81
2017-09-28T17:01:36.100Z,82.95
2017-09-28T17:04:03.491Z,83.55
2017-09-28T17:06:30.886Z,83.59
2017-09-28T17:08:58.281Z,83.68
2017-09-28T17:11:25.690Z,84.04
2017-09-28T17:13:53.090Z,83.90
2017-09-28T17:16:20.490Z,84.16
2017-09-28T17:18:47.908Z,84.16
2017-09-28T17:21:15.310Z,83.98
2017-09-28T17:23:42.710Z,83.42
2017-09-28T17:26:10.114Z,82.58
2017-09-28T17:28:37.531Z,83.74
2017-09-28T17:31:04.946Z,84.09
2017-09-28T17:33:32.357Z,84.34
2017-09-28T17:35:59.755Z,84.22
2017-09-28T17:38:27.169Z,84.48
2017-09-28T17:40:54.563Z,84.99
2017-09-28T17:43:22.489Z,84.87
2017-09-28T17:45:49.877Z,85.07
2017-09-28T17:48:17.284Z,85.21
2017-09-28T17:50:44.762Z,84.60
2017-09-28T17:53:12.164Z,84.09
2017-09-28T17:55:39.568Z,84.55
2017-09-28T17:58:06.972Z,84.86
2017-09-28T18:00:34.378Z,84.86
2017-09-28T18:03:01.790Z,84.72
2017-09-28T18:05:29.315Z,84.84
2017-09-28T18:07:56.764Z,84.82
2017-09-28T18:10:24.163Z,85.24
2017-09-28T18:12:51.719Z,84.51
2017-09-28T18:15:19.128Z,84.51
2017-09-28T18:17:46.550Z,84.08
2017-09-28T18:20:14.742Z,84.12
2017-09-28T18:22:42.151Z,83.60
2017-09-28T18:25:09.551Z,83.60
2017-09-28T18:27:36.960Z,83.50
2017-09-28T18:30:04.565Z,84.08
2017-09-28T18:32:31.978Z,84.17
2017-09-28T18:34:59.514Z,84.07
2017-09-28T18:37:26.937Z,83.34
2017-09-28T18:39:54.351Z,83.82
2017-09-28T18:42:21.755Z,84.81
2017-09-28T18:44:49.227Z,85.18
2017-09-28T18:47:16.620Z,84.76
2017-09-28T18:49:44.053Z,84.62
2017-09-28T18:52:11.491Z,84.55
2017-09-28T18:54:38.890Z,84.65
2017-09-28T18:57:06.298Z,84.67
2017-09-28T18:59:33.702Z,85.65
2017-09-28T19:02:01.102Z,86.56
2017-09-28T19:04:28.515Z,86.58
2017-09-28T19:06:55.917Z,86.99
2017-09-28T19:09:23.332Z,86.53
2017-09-28T19:11:50.731Z,86.26
2017-09-28T19:14:18.133Z,85.39
2017-09-28T19:16:45.551Z,85.43
2017-09-28T19:19:13.122Z,85.53
2017-09-28T19:21:40.747Z,85.66
2017-09-28T19:24:08.202Z,85.12
2017-09-28T19:26:35.687Z,84.69
2017-09-28T19:29:03.091Z,84.94
2017-09-28T19:31:30.490Z,84.51
2017-09-28T19:33:57.900Z,84.77
2017-09-28T19:36:25.301Z,86.28
2017-09-28T19:38:52.760Z,87.06
2017-09-28T19:41:20.152Z,87.01
2017-09-28T19:43:47.593Z,85.98
2017-09-28T19:46:14.983Z,86.18
2017-09-28T19:48:42.396Z,86.41
2017-09-28T19:51:09.787Z,86.80
2017-09-28T19:53:37.198Z,87.00
2017-09-28T19:56:04.606Z,86.53
2017-09-28T19:58:32.026Z,87.23
2017-09-28T20:00:59.436Z,87.19
2017-09-28T20:03:26.900Z,87.07
2017-09-28T20:05:54.315Z,86.38
2017-09-28T20:08:21.722Z,86.35
2017-09-28T20:10:49.127Z,86.17
2017-09-28T20:13:16.547Z,85.86
2017-09-28T20:15:43.963Z,85.19
2017-09-28T20:18:11.367Z,85.42
2017-09-28T20:20:38.775Z,85.60
2017-09-28T20:23:06.188Z,85.72
2017-09-28T20:25:33.622Z,85.76
2017-09-28T20:28:01.020Z,85.42
2017-09-28T20:30:28.418Z,85.36
2017-09-28T20:32:56.011Z,85.39
2017-09-28T20:35:23.403Z,85.69
2017-09-28T20:37:50.795Z,85.92
2017-09-28T20:40:18.199Z,86.54
2017-09-28T20:42:45.606Z,86.70
2017-09-28T20:45:13.080Z,86.74
2017-09-28T20:47:40.485Z,87.12
2017-09-28T20:50:07.899Z,87.19
2017-09-28T20:52:35.292Z,86.45
2017-09-28T20:55:02.710Z,86.55
2017-09-28T20:57:30.100Z,87.04
2017-09-28T20:59:57.505Z,86.43
2017-09-28T21:02:24.912Z,85.91
2017-09-28T21:04:52.364Z,85.83
2017-09-28T21:07:19.766Z,85.88
2017-09-28T21:09:47.168Z,84.55
2017-09-28T21:12:14.582Z,83.80
2017-09-28T21:14:41.989Z,82.95
2017-09-28T21:17:09.381Z,83.77
2017-09-28T21:19:36.788Z,83.78
2017-09-28T21:22:04.191Z,83.77
2017-09-28T21:24:31.603Z,84.23
2017-09-28T21:26:59.018Z,83.30
2017-09-28T21:29:26.419Z,83.61
2017-09-28T21:31:53.827Z,83.89
2017-09-28T21:34:21.226Z,83.97
2017-09-28T21:36:48.639Z,83.17
2017-09-28T21:39:16.039Z,82.12
2017-09-28T21:41:43.451Z,81.92
2017-09-28T21:44:10.851Z,82.08
2017-09-28T21:46:38.367Z,83.08
2017-09-28T21:49:05.764Z,83.38
2017-09-28T21:51:33.171Z,82.50
2017-09-28T21:54:00.571Z,82.28
2017-09-28T21:56:27.986Z,81.45
2017-09-28T21:58:55.391Z,82.34
2017-09-28T22:01:22.794Z,83.16
2017-09-28T22:03:50.263Z,83.65
2017-09-28T22:06:17.663Z,83.99
2017-09-28T22:08:45.075Z,85.23
2017-09-28T22:11:12.474Z,85.25
2017-09-28T22:13:39.992Z,85.50
2017-09-28T22:16:07.399Z,85.36
2017-09-28T22:18:34.908Z,86.26
2017-09-28T22:21:02.316Z,86.34
2017-09-28T22:23:29.714Z,86.48
2017-09-28T22:25:57.114Z,85.67
2017-09-28T22:28:24.522Z,84.82
2017-09-28T22:30:51.923Z,85.16
2017-09-28T22:33:19.431Z,84.91
2017-09-28T22:35:46.829Z,85.16
2017-09-28T22:38:14.230Z,84.92
2017-09-28T22:40:41.630Z,84.67
2017-09-28T22:43:09.044Z,84.96
2017-09-28T22:45:36.443Z,84.51
2017-09-28T22:48:03.851Z,83.82
2017-09-28T22:50:31.254Z,84.28
2017-09-28T22:52:58.663Z,84.78
2017-09-28T22:55:26.144Z,84.71
2017-09-28T22:57:53.554Z,84.50
2017-09-28T23:00:20.973Z,84.13
2017-09-28T23:02:48.379Z,85.05
2017-09-28T23:05:15.784Z,84.57
2017-09-28T23:07:43.182Z,84.66
2017-09-28T23:10:10.582Z,84.56
2017-09-28T23:12:37.986Z,84.39
2017-09-28T23:15:05.392Z,85.02
2017-09-28T23:17:32.806Z,85.06
2017-09-28T23:20:00.204Z,85.29
2017-09-28T23:22:27.598Z,85.41
2017-09-28T23:24:55.004Z,85.48
2017-09-28T23:27:22.394Z,85.56
2017-09-28T23:29:49.808Z,86.18
2017-09-28T23:32:17.207Z,87.15
2017-09-28T23:34:44.618Z,86.72
2017-09-28T23:37:12.031Z,86.38
2017-09-28T23:39:39.553Z,86.79
2017-09-28T23:42:06.939Z,86.32
2017-09-28T23:44:34.344Z,86.16
2017-09-28T23:47:01.746Z,86.16
2017-09-28T23:49:29.156Z,86.18
2017-09-28T23:51:56.550Z,86.46
2017-09-28T23:54:23.962Z,87.00
2017-09-28T23:56:51.364Z,87.03
2017-09-28T23:59:18.780Z,87.18
